Time;durP1;ratioP1;P1;durP2;ratioP2;P2;SDS_P1;SDS_P2;PMS_P1;PMS_P2;Temp;Humidity;BMP_temperature;BMP_pressure;BME280_temperature;BME280_humidity;BME280_pressure;Samples;Min_cycle;Max_cycle;Signal;HPM_P1;HPM_P2
2021/09/26 17:39:07;;;;;;;21.15;14.25;;;19.40;99.90;;;;;;5118351;27;21279;-59
2021/09/26 17:41:33;;;;;;;18.20;13.20;;;19.40;99.90;;;;;;5097589;28;20036;-57
2021/09/26 17:43:59;;;;;;;20.70;13.18;;;19.30;99.90;;;;;;5100160;28;20554;-58
2021/09/26 17:46:25;;;;;;;21.00;13.32;;;19.40;99.90;;;;;;5103063;28;20095;-57
2021/09/26 17:48:52;;;;;;;21.27;13.98;;;19.40;99.90;;;;;;5103255;28;20729;-55
2021/09/26 17:51:24;;;;;;;19.83;13.85;;;19.40;99.90;;;;;;5101021;28;20020;-57
2021/09/26 17:53:50;;;;;;;16.35;13.32;;;19.40;99.90;;;;;;5100892;28;20024;-58
2021/09/26 17:56:17;;;;;;;18.35;12.40;;;19.40;99.90;;;;;;5100369;28;20028;-57
2021/09/26 17:58:43;;;;;;;19.55;12.68;;;19.50;99.90;;;;;;5098537;28;20051;-57
2021/09/26 18:01:10;;;;;;;19.08;13.70;;;19.40;99.90;;;;;;5100546;28;21600;-56
2021/09/26 18:03:37;;;;;;;15.50;12.73;;;19.40;99.90;;;;;;5101096;28;20428;-56
2021/09/26 18:06:04;;;;;;;18.17;12.93;;;19.40;99.90;;;;;;5101046;28;20032;-55
2021/09/26 18:08:30;;;;;;;18.33;14.20;;;19.50;99.90;;;;;;5102778;28;20414;-58
2021/09/26 18:10:56;;;;;;;20.98;13.45;;;19.40;99.90;;;;;;5103294;28;20036;-57
2021/09/26 18:13:24;;;;;;;26.92;14.18;;;19.40;99.90;;;;;;5103818;28;20027;-58
2021/09/26 18:15:50;;;;;;;21.20;14.05;;;19.30;99.90;;;;;;5103212;28;20324;-58
2021/09/26 18:18:16;;;;;;;19.05;13.43;;;19.30;99.90;;;;;;5101306;28;20047;-57
2021/09/26 18:20:49;;;;;;;19.02;14.00;;;19.20;99.90;;;;;;5096983;28;20146;-57
2021/09/26 18:23:15;;;;;;;24.75;13.35;;;19.10;99.90;;;;;;5103078;28;20367;-59
2021/09/26 18:25:42;;;;;;;25.02;14.80;;;19.10;99.90;;;;;;5100838;28;20020;-55
2021/09/26 18:28:10;;;;;;;20.42;14.77;;;19.00;99.90;;;;;;5101839;28;20026;-57
2021/09/26 18:30:38;;;;;;;21.35;14.07;;;19.00;99.90;;;;;;5102966;28;20043;-59
2021/09/26 18:33:05;;;;;;;20.38;14.18;;;18.90;99.90;;;;;;5103727;28;20031;-59
2021/09/26 18:35:31;;;;;;;23.30;13.82;;;18.90;99.90;;;;;;5103330;28;20028;-56
2021/09/26 18:37:57;;;;;;;20.67;13.68;;;18.90;99.90;;;;;;5098868;28;20513;-58
2021/09/26 18:40:26;;;;;;;24.02;15.50;;;18.90;99.90;;;;;;5086140;28;20039;-59
2021/09/26 18:42:52;;;;;;;22.13;14.85;;;18.90;99.90;;;;;;5086786;28;20047;-57
2021/09/26 18:45:27;;;;;;;18.88;14.32;;;18.80;99.90;;;;;;5087157;28;20102;-58
2021/09/26 18:47:53;;;;;;;26.02;15.52;;;18.80;99.90;;;;;;5085760;28;20132;-57
2021/09/26 18:50:20;;;;;;;21.77;15.00;;;18.80;99.90;;;;;;5084415;28;20505;-59
2021/09/26 18:52:46;;;;;;;19.45;14.27;;;18.70;99.90;;;;;;5085530;28;20028;-58
2021/09/26 18:55:14;;;;;;;21.88;16.13;;;18.70;99.90;;;;;;5088704;28;20028;-58
2021/09/26 18:57:39;;;;;;;23.38;15.07;;;18.70;99.90;;;;;;5089162;28;20115;-58
2021/09/26 19:00:15;;;;;;;22.15;16.50;;;18.70;99.90;;;;;;5088964;28;20095;-59
2021/09/26 19:02:41;;;;;;;23.52;15.90;;;18.60;99.90;;;;;;5087108;28;20036;-56
2021/09/26 19:05:08;;;;;;;19.98;16.45;;;18.60;99.90;;;;;;5089177;28;20058;-57
2021/09/26 19:07:33;;;;;;;22.00;16.42;;;18.50;99.90;;;;;;5089328;28;20120;-57
2021/09/26 19:09:59;;;;;;;22.98;16.23;;;18.50;99.90;;;;;;5088537;28;20082;-54
2021/09/26 19:12:24;;;;;;;27.13;17.17;;;18.50;99.90;;;;;;5088509;28;20024;-54
2021/09/26 19:14:50;;;;;;;23.67;17.48;;;18.40;99.90;;;;;;5085955;28;20035;-57
2021/09/26 19:17:15;;;;;;;25.08;17.92;;;18.40;99.90;;;;;;5087603;28;20031;-54
2021/09/26 19:19:41;;;;;;;26.77;18.00;;;18.30;99.90;;;;;;5086834;28;20107;-56
2021/09/26 19:22:07;;;;;;;25.20;17.30;;;18.30;99.90;;;;;;5088112;28;20020;-56
2021/09/26 19:24:34;;;;;;;25.02;18.70;;;18.30;99.90;;;;;;5088312;28;20028;-59
2021/09/26 19:26:59;;;;;;;24.58;17.58;;;18.30;99.90;;;;;;5089088;28;20031;-57
2021/09/26 19:29:25;;;;;;;26.38;17.33;;;18.20;99.90;;;;;;5087456;28;20036;-57
2021/09/26 19:31:51;;;;;;;23.33;16.88;;;18.20;99.90;;;;;;5086358;28;20852;-59
2021/09/26 19:34:18;;;;;;;25.38;18.63;;;18.20;99.90;;;;;;5087894;28;20103;-57
2021/09/26 19:36:44;;;;;;;24.13;17.42;;;18.20;99.90;;;;;;5088193;28;20028;-58
2021/09/26 19:39:10;;;;;;;26.80;18.27;;;18.20;99.90;;;;;;5086029;28;20032;-59
2021/09/26 19:41:35;;;;;;;26.00;18.50;;;18.10;99.90;;;;;;5083495;28;20028;-59
2021/09/26 19:44:01;;;;;;;24.70;17.35;;;18.10;99.90;;;;;;5088218;28;20024;-58
2021/09/26 19:46:28;;;;;;;28.95;19.55;;;18.10;99.90;;;;;;5087923;28;20039;-58
2021/09/26 19:48:54;;;;;;;29.27;18.80;;;18.10;99.90;;;;;;5088531;28;20471;-55
2021/09/26 19:51:20;;;;;;;23.95;18.67;;;18.10;99.90;;;;;;5085914;28;20027;-59
2021/09/26 19:53:47;;;;;;;29.63;17.42;;;18.10;99.90;;;;;;5086682;28;20482;-58
2021/09/26 19:56:13;;;;;;;26.42;19.20;;;18.10;99.90;;;;;;5086720;28;20027;-59
2021/09/26 19:58:42;;;;;;;26.17;19.02;;;18.10;99.90;;;;;;5082656;28;20403;-58
2021/09/26 20:01:10;;;;;;;27.58;17.88;;;18.10;99.90;;;;;;5083126;28;20496;-59
2021/09/26 20:03:36;;;;;;;25.58;18.30;;;18.10;99.90;;;;;;5080040;28;20028;-60
2021/09/26 20:06:02;;;;;;;23.98;18.33;;;18.00;99.90;;;;;;5087106;28;20055;-59
2021/09/26 20:08:28;;;;;;;24.80;17.45;;;18.10;99.90;;;;;;5091908;28;20024;-58
2021/09/26 20:10:54;;;;;;;27.70;19.15;;;18.10;99.90;;;;;;5091034;28;20050;-58
2021/09/26 20:13:21;;;;;;;27.45;18.48;;;18.00;99.90;;;;;;5088067;28;20926;-57
2021/09/26 20:15:52;;;;;;;24.65;18.52;;;18.00;99.90;;;;;;5086057;28;20043;-59
2021/09/26 20:18:21;;;;;;;29.75;19.67;;;17.90;99.90;;;;;;5084839;28;20781;-55
2021/09/26 20:20:50;;;;;;;31.50;19.83;;;17.90;99.90;;;;;;5086872;28;20081;-59
2021/09/26 20:23:22;;;;;;;27.55;20.33;;;17.80;99.90;;;;;;5083607;28;20178;-59
2021/09/26 20:25:48;;;;;;;26.27;18.85;;;17.70;99.90;;;;;;5082642;28;20028;-58
2021/09/26 20:28:14;;;;;;;32.15;20.83;;;17.70;99.90;;;;;;5079673;28;20043;-58
2021/09/26 20:30:40;;;;;;;29.45;20.13;;;17.60;99.90;;;;;;5091653;22;20051;-57
2021/09/26 20:33:06;;;;;;;28.00;19.60;;;17.60;99.90;;;;;;5046942;28;20369;-58
2021/09/26 20:35:32;;;;;;;28.92;20.23;;;17.50;99.90;;;;;;5042816;28;20027;-57
2021/09/26 20:37:57;;;;;;;32.72;21.20;;;17.40;99.90;;;;;;5047818;28;20033;-57
2021/09/26 20:40:25;;;;;;;25.40;19.45;;;17.30;99.90;;;;;;5044555;28;20057;-53
2021/09/26 20:42:51;;;;;;;28.05;21.17;;;17.30;99.90;;;;;;5037321;28;20025;-53
2021/09/26 20:45:22;;;;;;;27.98;21.08;;;17.30;99.90;;;;;;5044888;28;20027;-57
2021/09/26 20:47:48;;;;;;;29.15;22.15;;;17.30;99.90;;;;;;5045680;28;20037;-58
2021/09/26 20:50:13;;;;;;;28.10;21.42;;;17.20;99.90;;;;;;5045646;28;20041;-58
2021/09/26 20:52:42;;;;;;;33.90;21.77;;;17.20;99.90;;;;;;5046080;28;20028;-61
2021/09/26 20:55:08;;;;;;;35.30;23.42;;;17.20;99.90;;;;;;5046361;28;20452;-58
2021/09/26 20:57:34;;;;;;;30.88;23.17;;;17.10;99.90;;;;;;5044364;28;20034;-57
2021/09/26 21:00:00;;;;;;;32.10;21.90;;;17.00;99.90;;;;;;5040772;28;20032;-58
2021/09/26 21:02:25;;;;;;;29.55;21.88;;;17.00;99.90;;;;;;5025905;28;20027;-60
2021/09/26 21:04:51;;;;;;;31.52;22.63;;;16.90;99.90;;;;;;5025656;28;20780;-59
2021/09/26 21:07:17;;;;;;;27.10;20.02;;;16.90;99.90;;;;;;5040574;28;20504;-57
2021/09/26 21:09:42;;;;;;;29.58;20.25;;;16.90;99.90;;;;;;5028457;28;20116;-59
2021/09/26 21:12:08;;;;;;;33.22;21.58;;;16.80;99.90;;;;;;5043964;28;20067;-56
2021/09/26 21:14:33;;;;;;;25.88;20.23;;;16.80;99.90;;;;;;5049143;28;20041;-56
2021/09/26 21:17:00;;;;;;;30.52;20.98;;;16.70;99.90;;;;;;5045471;28;20037;-59
2021/09/26 21:19:26;;;;;;;31.80;22.75;;;16.60;99.90;;;;;;5044997;28;20428;-57
2021/09/26 21:21:53;;;;;;;31.98;21.33;;;16.60;99.90;;;;;;5041355;28;20415;-57
2021/09/26 21:24:20;;;;;;;32.40;21.25;;;16.60;99.90;;;;;;5044302;28;20060;-53
2021/09/26 21:26:45;;;;;;;27.83;20.23;;;16.50;99.90;;;;;;5043286;28;20029;-59
2021/09/26 21:29:11;;;;;;;30.35;20.70;;;16.50;99.90;;;;;;5046313;28;20040;-57
2021/09/26 21:31:37;;;;;;;35.17;22.52;;;16.40;99.90;;;;;;5041156;28;20032;-57
2021/09/26 21:34:04;;;;;;;31.00;19.88;;;16.40;99.90;;;;;;5040481;28;20099;-58
2021/09/26 21:36:30;;;;;;;30.83;20.90;;;16.40;99.90;;;;;;5034867;28;20386;-57
2021/09/26 21:38:56;;;;;;;32.50;21.60;;;16.30;99.90;;;;;;5037447;28;20052;-60
2021/09/26 21:41:24;;;;;;;31.48;19.85;;;16.30;99.90;;;;;;5045041;28;20064;-56
2021/09/26 21:43:50;;;;;;;31.10;20.40;;;16.30;99.90;;;;;;5049287;28;20028;-57
2021/09/26 21:46:16;;;;;;;28.35;19.60;;;16.30;99.90;;;;;;5042490;28;20052;-56
2021/09/26 21:48:41;;;;;;;30.30;19.83;;;16.30;99.90;;;;;;5032699;28;20061;-59
2021/09/26 21:51:07;;;;;;;28.70;19.95;;;16.20;99.90;;;;;;5036762;28;20116;-57
2021/09/26 21:53:32;;;;;;;27.15;18.85;;;16.30;99.90;;;;;;5041127;28;20041;-56
2021/09/26 21:55:58;;;;;;;24.50;18.17;;;16.20;99.90;;;;;;5030652;28;20397;-56
2021/09/26 21:58:23;;;;;;;25.80;19.00;;;16.20;99.90;;;;;;5031103;28;20040;-56
2021/09/26 22:01:04;;;;;;;30.95;18.88;;;16.20;99.90;;;;;;5035221;28;20032;-54
2021/09/26 22:03:33;;;;;;;22.25;16.92;;;16.20;99.90;;;;;;5035894;28;20427;-55
2021/09/26 22:05:59;;;;;;;26.15;18.33;;;16.30;99.90;;;;;;5039430;28;20021;-56
2021/09/26 22:08:25;;;;;;;23.38;15.95;;;16.30;99.90;;;;;;5049286;28;20031;-56
2021/09/26 22:10:53;;;;;;;22.27;16.38;;;16.30;99.90;;;;;;5040282;28;20025;-58
2021/09/26 22:13:20;;;;;;;23.63;16.48;;;16.30;99.90;;;;;;5033823;28;20022;-57
2021/09/26 22:15:47;;;;;;;24.38;15.45;;;16.20;99.90;;;;;;5033749;28;20508;-56
2021/09/26 22:18:17;;;;;;;25.40;16.67;;;16.20;99.90;;;;;;5038627;28;20033;-60
2021/09/26 22:20:48;;;;;;;23.50;16.08;;;16.20;99.90;;;;;;5046768;28;20025;-55
2021/09/26 22:23:16;;;;;;;24.50;14.40;;;16.20;99.90;;;;;;5037407;28;20449;-57
2021/09/26 22:25:43;;;;;;;26.17;16.88;;;16.20;99.90;;;;;;5037636;28;20025;-58
2021/09/26 22:28:11;;;;;;;27.08;18.40;;;16.10;99.90;;;;;;5035840;28;20017;-59
2021/09/26 22:30:38;;;;;;;25.70;17.77;;;16.10;99.90;;;;;;5044063;28;20112;-58
2021/09/26 22:33:04;;;;;;;28.85;17.73;;;16.00;99.90;;;;;;5040570;28;20510;-58
2021/09/26 22:35:32;;;;;;;31.50;18.17;;;16.00;99.90;;;;;;5040815;28;20076;-57
2021/09/26 22:37:58;;;;;;;22.38;16.50;;;15.90;99.90;;;;;;5040942;28;20063;-57
2021/09/26 22:40:25;;;;;;;27.45;16.48;;;15.90;99.90;;;;;;5037632;28;20036;-59
2021/09/26 22:42:50;;;;;;;21.55;16.50;;;15.80;99.90;;;;;;5039159;28;20017;-56
2021/09/26 22:45:17;;;;;;;27.15;17.15;;;15.80;99.90;;;;;;5041273;28;20040;-58
2021/09/26 22:47:43;;;;;;;24.10;16.60;;;15.80;99.90;;;;;;5038368;28;20032;-58
2021/09/26 22:50:13;;;;;;;21.80;15.02;;;15.80;99.90;;;;;;5043849;28;20029;-57
2021/09/26 22:52:41;;;;;;;25.42;17.48;;;15.80;99.90;;;;;;5042174;28;20496;-59
2021/09/26 22:55:15;;;;;;;24.75;16.83;;;15.70;99.90;;;;;;5044116;28;20029;-58
2021/09/26 22:57:41;;;;;;;28.85;17.15;;;15.70;99.90;;;;;;5041538;28;20121;-53
2021/09/26 23:00:11;;;;;;;25.33;17.55;;;15.60;99.90;;;;;;5043868;28;20056;-59
2021/09/26 23:02:37;;;;;;;26.23;18.02;;;15.50;99.90;;;;;;5042671;28;20037;-57
2021/09/26 23:05:03;;;;;;;30.48;18.45;;;15.50;99.90;;;;;;5041975;28;20392;-58
2021/09/26 23:07:29;;;;;;;25.58;16.98;;;15.40;99.90;;;;;;5038465;28;20029;-60
2021/09/26 23:09:54;;;;;;;29.85;17.00;;;15.40;99.90;;;;;;5047215;28;20564;-58
2021/09/26 23:12:20;;;;;;;30.20;16.85;;;15.30;99.90;;;;;;5039326;28;20399;-57
2021/09/26 23:14:45;;;;;;;27.63;17.88;;;15.20;99.90;;;;;;5022635;28;20021;-57
2021/09/26 23:17:11;;;;;;;27.08;17.65;;;15.20;99.90;;;;;;5040272;28;20025;-56
2021/09/26 23:19:36;;;;;;;32.63;17.40;;;15.20;99.90;;;;;;5048172;28;20051;-55
2021/09/26 23:22:02;;;;;;;27.55;18.63;;;15.20;99.90;;;;;;5041418;28;20102;-55
2021/09/26 23:24:28;;;;;;;27.23;17.25;;;15.20;99.90;;;;;;5035610;28;20052;-57
2021/09/26 23:26:53;;;;;;;29.27;17.98;;;15.10;99.90;;;;;;5038734;28;20033;-53
2021/09/26 23:29:21;;;;;;;24.30;17.15;;;15.10;99.90;;;;;;5036180;28;20097;-56
2021/09/26 23:31:47;;;;;;;37.30;19.00;;;15.10;99.90;;;;;;5041123;28;20040;-56
2021/09/26 23:34:12;;;;;;;26.33;17.52;;;15.10;99.90;;;;;;5047758;28;20032;-57
2021/09/26 23:36:38;;;;;;;28.13;18.55;;;15.10;99.90;;;;;;5044316;28;20027;-57
2021/09/26 23:39:04;;;;;;;30.15;18.10;;;15.10;99.90;;;;;;5040738;28;20101;-58
2021/09/26 23:41:30;;;;;;;27.27;17.85;;;15.00;99.90;;;;;;5032361;28;20018;-57
2021/09/26 23:43:55;;;;;;;30.05;17.67;;;15.10;99.90;;;;;;5035002;28;20025;-56
2021/09/26 23:46:26;;;;;;;27.55;17.80;;;15.10;99.90;;;;;;5037257;28;20036;-55
2021/09/26 23:48:53;;;;;;;25.50;17.25;;;15.10;99.90;;;;;;5035477;28;20500;-58
2021/09/26 23:51:19;;;;;;;27.02;17.65;;;15.00;99.90;;;;;;5048309;28;20496;-55
2021/09/26 23:53:45;;;;;;;30.77;18.85;;;14.90;99.90;;;;;;5040100;28;20032;-58
2021/09/26 23:56:11;;;;;;;28.13;17.67;;;14.90;99.90;;;;;;5038697;28;20087;-55
2021/09/26 23:58:37;;;;;;;27.02;17.80;;;14.90;99.90;;;;;;5038121;28;20373;-54
